Data for 06/23/2005

Time Sea-Level Adjusted Pressure Absolute Pressure Temperature Relative Humidity Dew Point   
(mb) (inHg) (mb) (inHg) (C) (F) (%) (C) (F)
00:05 1014 29.94 844 24.92 21.6 70.9 31 4 39.2
00:10 1014 29.94 844 24.92 21.6 70.9 30 3.5 38.3
00:15 1014 29.94 844 24.92 21.8 71.3 30 3.6 38.6
00:20 1014 29.94 844 24.92 22 71.6 30 3.7 38.6
00:25 1014 29.94 844 24.92 22 71.7 29 3.6 38.5
00:30 1014 29.94 844 24.92 22.3 72.1 29 3.8 38.8
00:35 1014 29.94 843 24.89 22.6 72.6 29 3.9 39.1
00:40 1014 29.94 843 24.89 22.4 72.3 30 4 39.2
00:45 1014 29.94 843 24.89 22.3 72.1 30 4.3 39.7
00:50 1014 29.94 843 24.89 22.1 71.8 31 4.3 39.7
00:55 1014 29.94 843 24.89 22.1 71.7 31 4.3 39.7
01:00 1014 29.94 843 24.89 22 71.7 31 4.3 39.8
01:05 1014 29.94 843 24.89 21.9 71.4 31 4 39.2
01:10 1014 29.94 843 24.89 21.9 71.3 33 4.8 40.7
01:15 1014 29.94 843 24.89 21.6 70.8 32 4.2 39.6
01:20 1014 29.94 843 24.89 21.5 70.6 33 4.9 40.8
01:25 1014 29.94 843 24.89 21.2 70.1 34 4.8 40.7
01:30 1014 29.94 843 24.89 21.1 69.9 33 4.3 39.7
01:35 1014 29.94 843 24.89 21.1 70.1 33 4.3 39.7
01:40 1014 29.94 843 24.89 21.2 70.2 33 4.6 40.3
01:45 1014 29.94 844 24.92 20.9 69.6 34 4.5 40.2
01:50 1015 29.97 844 24.92 20.7 69.3 34 4.6 40.3
01:55 1015 29.97 844 24.92 20.7 69.3 34 4.5 40
02:00 1015 29.97 844 24.92 20.7 69.2 35 4.9 40.8
02:05 1015 29.97 844 24.92 20 68 39 5.8 42.4
02:10 1015 29.97 844 24.92 19.3 66.7 41 5.9 42.7
02:15 1015 29.97 844 24.92 18.9 66.1 42 5.9 42.5
02:20 1015 29.97 844 24.92 18.8 65.8 42 5.6 42.1
02:25 1015 29.97 844 24.92 19 66.1 42 5.8 42.5
02:30 1015 29.97 844 24.92 19 66.2 42 5.8 42.5
02:35 1015 29.97 844 24.92 18.9 66.1 43 6.1 43.1
02:40 1015 29.97 844 24.92 18.8 65.8 43 6.1 42.9
02:45 1015 29.97 844 24.92 18.7 65.7 43 5.9 42.6
02:50 1015 29.97 844 24.92 18.8 65.9 42 5.8 42.4
02:55 1015 29.97 844 24.92 18.9 65.9 43 6 42.8
03:00 1015 29.97 844 24.92 18.8 65.8 43 5.9 42.6
03:05 1015 29.97 844 24.92 18.6 65.4 43 6 42.8
03:10 1015 29.97 844 24.92 18.3 65 45 6.2 43.2
03:15 1015 29.97 844 24.92 18 64.3 46 6.4 43.5
03:20 1015 29.97 844 24.92 17.6 63.6 48 6.5 43.7
03:25 1015 29.97 845 24.95 17.3 63.2 49 6.6 43.8
03:30 1015 29.97 844 24.92 17.2 62.9 50 6.7 44
03:35 1015 29.97 845 24.95 16.9 62.5 50 6.6 43.8
03:40 1015 29.97 845 24.95 16.7 62 52 6.8 44.2
03:45 1015 29.97 845 24.95 16.6 61.9 52 6.7 44.1
03:50 1015 29.97 845 24.95 16.7 62 52 6.8 44.2
03:55 1015 29.97 845 24.95 16.6 61.8 52 6.8 44.2
04:00 1015 29.97 845 24.95 16.5 61.7 51 6.6 43.8
04:05 1015 29.97 845 24.95 16.6 61.9 52 6.8 44.2
04:10 1015 29.97 845 24.95 16.2 61.2 55 7.2 44.9
04:15 1016 30 845 24.95 15.9 60.7 54 6.7 44.1
04:20 1016 30 845 24.95 15.9 60.6 55 6.8 44.3
04:25 1015 29.97 845 24.95 15.6 60.1 56 6.9 44.3
04:30 1016 30 845 24.95 16.2 61.2 51 6.1 43
04:35 1016 30 845 24.95 16.6 61.8 52 6.8 44.3
04:40 1016 30 845 24.95 15.9 60.7 54 6.8 44.2
04:45 1016 30 845 24.95 15.9 60.5 52 6.1 43
04:50 1016 30 845 24.95 16.5 61.7 51 6.3 43.3
04:55 1016 30 845 24.95 16.5 61.8 51 6.6 43.8
05:00 1016 30 845 24.95 16.3 61.3 53 6.7 44.1
05:05 1016 30 845 24.95 16 60.7 54 6.7 44.1
05:10 1016 30 845 24.95 16.2 61.1 52 6.4 43.5
05:15 1016 30 845 24.95 16.4 61.6 51 6.4 43.5
05:20 1016 30 845 24.95 16.4 61.5 52 6.6 43.9
05:25 1016 30 845 24.95 16.3 61.3 52 6.5 43.8
05:30 1016 30 845 24.95 16.2 61.1 54 6.9 44.4
05:35 1016 30 845 24.95 16 60.7 55 6.9 44.5
05:40 1016 30 846 24.98 16.2 61.2 52 6.4 43.5
05:45 1016 30 846 24.98 16.4 61.6 52 6.7 44.1
05:50 1017 30.03 846 24.98 16.1 60.9 55 7.1 44.7
05:55 1017 30.03 846 24.98 15.7 60.3 56 7.1 44.8
06:00 1017 30.03 846 24.98 15.7 60.2 57 7.4 45.2
06:05 1017 30.03 846 24.98 15.7 60.3 58 7.5 45.5
06:10 1017 30.03 846 24.98 15.8 60.4 58 7.5 45.5
06:15 1017 30.03 846 24.98 15.9 60.6 58 7.7 45.9
06:20 1017 30.03 846 24.98 16 60.7 57 7.6 45.6
06:25 1017 30.03 846 24.98 16.1 61 56 7.4 45.2
06:30 1017 30.03 846 24.98 16.3 61.4 55 7.4 45.3
06:35 1017 30.03 847 25.01 16.5 61.8 56 7.9 46.1
06:40 1017 30.03 847 25.01 16.3 61.3 59 8.4 47.2
06:45 1017 30.03 847 25.01 15.3 59.5 62 8.1 46.6
06:50 1017 30.03 847 25.01 15.4 59.7 61 7.9 46.2
06:55 1018 30.06 847 25.01 15.5 59.9 59 7.5 45.5
07:00 1018 30.06 847 25.01 15.7 60.2 57 7.2 45
07:05 1018 30.06 847 25.01 16.3 61.4 54 7.1 44.8
07:10 1018 30.06 847 25.01 16.5 61.7 55 7.5 45.4
07:15 1018 30.06 847 25.01 16.3 61.3 56 7.6 45.7
07:20 1018 30.06 847 25.01 16.1 60.9 58 7.8 46
07:25 1018 30.06 847 25.01 16.1 61 56 7.5 45.6
07:30 1018 30.06 847 25.01 16.5 61.8 55 7.5 45.6
07:35 1018 30.06 847 25.01 16.6 61.9 55 7.6 45.7
07:40 1018 30.06 847 25.01 16.7 62 56 8.1 46.5
07:45 1018 30.06 847 25.01 16.3 61.4 56 7.7 45.8
07:50 1018 30.06 847 25.01 16.5 61.7 55 7.6 45.7
07:55 1018 30.06 847 25.01 16.9 62.5 55 7.8 46.1
08:00 1018 30.06 847 25.01 17.1 62.7 55 7.9 46.3
08:05 1018 30.06 847 25.01 17.3 63.1 54 8 46.4
08:10 1018 30.06 847 25.01 17.6 63.7 54 8.2 46.8
08:15 1018 30.06 848 25.04 17.4 63.4 54 8.2 46.8
08:20 1018 30.06 848 25.04 17.4 63.3 53 7.9 46.3
08:25 1018 30.06 848 25.04 17.8 64 52 7.8 46.1
08:30 1018 30.06 848 25.04 18.3 64.9 51 8.1 46.5
08:35 1019 30.09 848 25.04 18.3 64.9 52 8.2 46.8
08:40 1019 30.09 848 25.04 18 64.4 51 7.8 46
08:45 1019 30.09 848 25.04 18 64.4 52 8.2 46.8
08:50 1019 30.09 848 25.04 17.6 63.7 51 7.5 45.6
08:55 1019 30.09 848 25.04 18.3 65 50 7.9 46.3
09:00 1019 30.09 848 25.04 18.6 65.5 48 7.5 45.5
09:05 1019 30.09 848 25.04 19.1 66.3 46 7.3 45.1
09:10 1019 30.09 848 25.04 18.8 65.8 49 7.8 46.1
09:15 1019 30.09 848 25.04 18.7 65.6 48 7.7 45.9
09:20 1019 30.09 848 25.04 19.2 66.5 46 7.3 45.2
09:25 1019 30.09 848 25.04 19.7 67.4 45 7.4 45.4
09:30 1019 30.09 848 25.04 19.7 67.5 45 7.6 45.6
09:35 1019 30.09 848 25.04 19.5 67.1 48 8.2 46.8
09:40 1019 30.09 848 25.04 19.5 67.1 46 7.7 45.8
09:45 1019 30.09 848 25.04 19.9 67.8 45 7.7 45.9
09:50 1019 30.09 848 25.04 20 67.9 46 8 46.4
09:55 1019 30.09 848 25.04 20.1 68.2 46 8.3 46.9
10:00 1019 30.09 848 25.04 20 68.1 43 7.2 45
10:05 1019 30.09 848 25.04 20.4 68.7 40 6.6 43.9
10:10 1019 30.09 848 25.04 20.3 68.6 40 6.5 43.7
10:15 1019 30.09 848 25.04 20.4 68.8 40 6.7 44
10:20 1019 30.09 848 25.04 20.5 69 40 6.5 43.8
10:25 1019 30.09 848 25.04 20.5 68.9 39 6.4 43.5
10:30 1019 30.09 848 25.04 20.7 69.3 39 6.4 43.5
10:35 1019 30.09 848 25.04 20.8 69.5 40 6.8 44.2
10:40 1019 30.09 848 25.04 20.8 69.5 40 6.8 44.2
10:45 1018 30.06 848 25.04 20.9 69.7 40 6.8 44.3
10:50 1018 30.06 848 25.04 21.3 70.3 39 6.9 44.4
10:55 1018 30.06 848 25.04 21.3 70.4 41 7.7 45.8
11:00 1018 30.06 847 25.01 21.5 70.7 40 7.6 45.7
11:05 1018 30.06 847 25.01 21.3 70.4 40 7.5 45.5
11:10 1018 30.06 847 25.01 21.5 70.7 39 7.2 44.9
11:15 1018 30.06 847 25.01 21.6 70.8 41 8 46.3
11:20 1018 30.06 847 25.01 21.6 70.8 40 7.5 45.5
11:25 1018 30.06 847 25.01 22 71.6 39 7.5 45.6
11:30 1018 30.06 847 25.01 22.2 71.9 40 8.3 46.9
11:35 1018 30.06 847 25.01 21.7 71.1 40 7.8 46.1
11:40 1018 30.06 847 25.01 22.2 72 38 7.5 45.6
11:45 1018 30.06 847 25.01 22.4 72.3 39 8.1 46.6
11:50 1018 30.06 847 25.01 22.3 72.1 39 7.7 45.9
11:55 1018 30.06 847 25.01 22.5 72.5 37 7.3 45.2
12:00 1018 30.06 847 25.01 22.3 72.1 39 8 46.4
12:05 1018 30.06 847 25.01 22.2 72 39 8 46.3
12:10 1018 30.06 847 25.01 22.7 72.8 39 8.3 46.9
12:15 1018 30.06 847 25.01 23 73.5 37 7.8 46
12:20 1018 30.06 847 25.01 23.1 73.6 37 7.9 46.2
12:25 1018 30.06 847 25.01 22.8 73.1 40 8.8 47.9
12:30 1018 30.06 847 25.01 22.7 72.9 38 8 46.4
12:35 1018 30.06 847 25.01 23.1 73.5 38 8 46.4
12:40 1017 30.03 847 25.01 23.2 73.7 38 8.3 47
12:45 1017 30.03 847 25.01 23.6 74.4 37 8.3 46.9
12:50 1017 30.03 847 25.01 23.7 74.7 38 8.7 47.6
12:55 1017 30.03 846 24.98 23.8 74.9 38 8.9 48
13:00 1017 30.03 846 24.98 22.9 73.2 38 8.2 46.7
13:05 1017 30.03 846 24.98 23 73.5 37 7.9 46.2
13:10 1017 30.03 846 24.98 23 73.5 40 9.1 48.3
13:15 1017 30.03 846 24.98 22.9 73.3 39 8.5 47.4
13:20 1017 30.03 846 24.98 23 73.4 40 9 48.1
13:25 1017 30.03 846 24.98 23 73.5 38 8.2 46.7
13:30 1017 30.03 846 24.98 22.7 72.8 38 7.9 46.2
13:35 1017 30.03 846 24.98 23.1 73.7 39 8.5 47.3
13:40 1017 30.03 846 24.98 23.1 73.6 38 8.4 47.1
13:45 1017 30.03 846 24.98 23.5 74.2 37 8.2 46.7
13:50 1017 30.03 846 24.98 23.4 74.1 36 7.8 46.1
13:55 1017 30.03 846 24.98 23.9 75 36 8 46.4
14:00 1017 30.03 846 24.98 23.7 74.7 38 8.6 47.6
14:05 1017 30.03 846 24.98 24 75.2 35 7.9 46.2
14:10 1017 30.03 846 24.98 23.8 74.8 36 8.1 46.6
14:15 1017 30.03 846 24.98 23.8 74.8 35 7.5 45.5
14:20 1017 30.03 846 24.98 23.9 75.1 36 8 46.4
14:25 1016 30 846 24.98 24 75.3 35 7.6 45.8
14:30 1016 30 846 24.98 23.8 74.8 34 7.3 45.1
14:35 1016 30 846 24.98 24.6 76.3 33 7.3 45.2
14:40 1016 30 845 24.95 24.4 76 34 7.7 45.8
14:45 1016 30 845 24.95 24.6 76.2 34 8 46.3
14:50 1016 30 846 24.98 23.4 74.1 36 7.8 46
14:55 1016 30 846 24.98 23.2 73.8 36 7.4 45.3
15:00 1016 30 846 24.98 23.4 74 36 7.7 45.8
15:05 1017 30.03 846 24.98 23.3 74 35 7.2 45
15:10 1017 30.03 846 24.98 23.1 73.7 34 6.8 44.3
15:15 1017 30.03 846 24.98 23 73.3 37 7.8 46
15:20 1017 30.03 846 24.98 22.3 72.2 39 7.8 46
15:25 1017 30.03 846 24.98 21.9 71.3 44 9.3 48.7
15:30 1017 30.03 846 24.98 21.4 70.5 43 8.4 47.2
15:35 1017 30.03 846 24.98 21.4 70.4 44 8.8 47.8
15:40 1017 30.03 846 24.98 21.4 70.5 44 8.9 48.1
15:45 1017 30.03 846 24.98 21.4 70.4 45 9.2 48.6
15:50 1017 30.03 846 24.98 21 69.8 47 9.5 49.1
15:55 1017 30.03 846 24.98 20.9 69.7 47 9.3 48.7
16:00 1017 30.03 846 24.98 21.1 69.9 48 9.8 49.7
16:05 1017 30.03 846 24.98 21.3 70.4 46 9.5 49.2
16:10 1016 30 846 24.98 21.3 70.3 48 9.9 49.9
16:15 1016 30 846 24.98 21 69.9 50 10.4 50.7
16:20 1016 30 846 24.98 21 69.8 54 11.4 52.6
16:25 1016 30 845 24.95 21.2 70.2 50 10.5 50.9
16:30 1016 30 845 24.95 21.2 70.1 49 10.1 50.1
16:35 1016 30 845 24.95 20.9 69.6 49 10 49.9
16:40 1016 30 845 24.95 20.8 69.5 48 9.5 49.2
16:45 1016 30 845 24.95 20.7 69.3 51 10.3 50.5
16:50 1016 30 845 24.95 20.7 69.3 46 8.9 47.9
16:55 1016 30 845 24.95 20.8 69.4 50 10.1 50.2
17:00 1016 30 845 24.95 20.8 69.5 49 9.9 49.8
17:05 1016 30 845 24.95 20.8 69.4 49 9.8 49.7
17:10 1016 30 845 24.95 20.9 69.7 47 9.4 49
17:15 1016 30 845 24.95 21.1 70 45 9 48.1
17:20 1016 30 845 24.95 21.4 70.6 45 9 48.3
17:25 1016 30 845 24.95 21.3 70.3 55 12 53.6
17:30 1016 30 845 24.95 20.8 69.5 56 11.8 53.2
17:35 1016 30 845 24.95 20.8 69.5 59 12.6 54.6
17:40 1016 30 845 24.95 20.6 69 56 11.6 52.9
17:45 1016 30 845 24.95 20.1 68.1 59 11.9 53.5
17:50 1016 30 846 24.98 19.9 67.8 59 11.7 53.1
17:55 1016 30 846 24.98 20 68 58 11.6 52.9
18:00 1016 30 845 24.95 19.7 67.4 62 12.2 54
18:05 1016 30 846 24.98 19.5 67 61 12 53.5
18:10 1016 30 846 24.98 19.5 67.2 59 11.4 52.5
18:15 1016 30 846 24.98 19.4 67 59 11.3 52.4
18:20 1016 30 846 24.98 19.3 66.7 58 10.8 51.5
18:25 1016 30 846 24.98 19.3 66.7 57 10.7 51.3
18:30 1017 30.03 846 24.98 19.1 66.3 63 12 53.5
18:35 1017 30.03 846 24.98 18.4 65.2 57 10 50
18:40 1017 30.03 846 24.98 18.8 65.8 49 8.1 46.6
18:45 1017 30.03 846 24.98 18.8 65.9 49 8 46.5
18:50 1017 30.03 846 24.98 18.2 64.8 58 9.8 49.7
18:55 1017 30.03 846 24.98 17 62.7 63 9.9 49.9
19:00 1017 30.03 846 24.98 16.1 61 64 9.3 48.8
19:05 1016 30 846 24.98 16.3 61.3 60 8.6 47.5
19:10 1016 30 846 24.98 16.6 61.9 58 8.3 46.9
19:15 1016 30 846 24.98 16.9 62.4 56 8 46.4
19:20 1016 30 846 24.98 17.1 62.7 52 7.2 45
19:25 1016 30 846 24.98 17.2 62.9 53 7.7 45.9
19:30 1017 30.03 846 24.98 17 62.5 56 8.2 46.7
19:35 1017 30.03 846 24.98 16.8 62.3 55 7.9 46.2
19:40 1017 30.03 846 24.98 17 62.7 53 7.6 45.7
19:45 1017 30.03 846 24.98 17.1 62.8 53 7.5 45.4
19:50 1017 30.03 846 24.98 17.3 63.2 51 7.3 45.2
19:55 1017 30.03 846 24.98 17.5 63.4 51 7.3 45.2
20:00 1017 30.03 846 24.98 17.6 63.6 52 7.6 45.7
20:05 1017 30.03 846 24.98 17.6 63.7 51 7.6 45.6
20:10 1017 30.03 846 24.98 17.7 63.9 52 7.9 46.3
20:15 1017 30.03 846 24.98 17.6 63.7 54 8.3 47
20:20 1017 30.03 846 24.98 17.4 63.3 54 8.2 46.8
20:25 1017 30.03 846 24.98 17.1 62.8 54 7.9 46.3
20:30 1017 30.03 846 24.98 17.2 62.9 54 7.9 46.2
20:35 1017 30.03 846 24.98 17.2 62.9 53 7.7 45.9
20:40 1017 30.03 846 24.98 17 62.7 55 7.9 46.3
20:45 1017 30.03 846 24.98 16.9 62.4 57 8.4 47.1
20:50 1017 30.03 846 24.98 16.8 62.2 57 8.3 47
20:55 1017 30.03 846 24.98 16.7 62.1 56 8 46.5
21:00 1017 30.03 846 24.98 16.6 61.9 57 8.1 46.6
21:05 1017 30.03 847 25.01 16.4 61.4 57 7.9 46.3
21:10 1017 30.03 847 25.01 16.3 61.3 57 7.9 46.2
21:15 1017 30.03 847 25.01 16.1 61 57 7.6 45.6
21:20 1017 30.03 847 25.01 16.1 61 55 7.1 44.8
21:25 1017 30.03 847 25.01 16.1 61 56 7.5 45.4
21:30 1017 30.03 847 25.01 16 60.8 59 8 46.4
21:35 1018 30.06 847 25.01 15.7 60.3 61 8.2 46.8
21:40 1018 30.06 847 25.01 15.3 59.6 63 8.5 47.3
21:45 1018 30.06 847 25.01 14.8 58.7 66 8.6 47.6
21:50 1018 30.06 847 25.01 14.4 58 66 8.2 46.7
21:55 1018 30.06 847 25.01 14.6 58.3 64 7.9 46.1
22:00 1018 30.06 847 25.01 14.8 58.7 64 8 46.5
22:05 1018 30.06 847 25.01 14.7 58.4 65 8.2 46.8
22:10 1018 30.06 847 25.01 14.6 58.3 65 8.1 46.6
22:15 1018 30.06 847 25.01 14.6 58.2 66 8.3 47
22:20 1018 30.06 847 25.01 14.2 57.6 67 8.3 46.9
22:25 1018 30.06 847 25.01 14.3 57.7 65 7.8 46
22:30 1018 30.06 847 25.01 14.6 58.3 61 7.3 45.1
22:35 1018 30.06 847 25.01 15 58.9 60 7.4 45.3
22:40 1018 30.06 847 25.01 14.9 58.8 61 7.4 45.4
22:45 1018 30.06 847 25.01 14.9 58.9 60 7.3 45.1
22:50 1018 30.06 847 25.01 14.9 58.7 60 7.4 45.2
22:55 1018 30.06 847 25.01 14.7 58.5 61 7.3 45.1
23:00 1018 30.06 847 25.01 14.6 58.3 61 7.2 45
23:05 1018 30.06 848 25.04 14.5 58.2 61 7.3 45.1
23:10 1018 30.06 848 25.04 14.4 57.8 62 7.3 45.1
23:15 1018 30.06 848 25.04 14.2 57.6 62 7.2 45
23:20 1018 30.06 847 25.01 14.1 57.4 63 7.2 44.9
23:25 1018 30.06 847 25.01 13.9 57 63 7.1 44.8
23:30 1018 30.06 847 25.01 14 57.2 62 6.9 44.5
23:35 1018 30.06 847 25.01 14.2 57.5 61 6.8 44.3
23:40 1018 30.06 847 25.01 14.3 57.7 59 6.5 43.7
23:45 1018 30.06 847 25.01 14.2 57.5 63 7.3 45.2
23:50 1018 30.06 847 25.01 13.7 56.7 64 7.2 44.9
23:55 1018 30.06 847 25.01 13.5 56.3 68 7.7 45.8
24:00 1018 30.06 847 25.01 13.4 56 65 7 44.7